RYR1JB EDDH-EDDF
Flight info
| Callsign | RYR1JB |
|---|---|
| Flight time | 0h 47m |
| Altitude | 28000 |
| Route | AMLUH2G AMLUH M852 DENIX DCT RIMET/N0443F270 T157 KOKEB/N0417F230 T157 KERAX KERAX5A |
| Aircraft | B38M/M-SDE1FGHILORVWXY/HB1 |
Departure
| Time | 2026-05-05 17:13 |
|---|---|
| Airport | Hamburg Helmut Schmidt Airport (EDDH) |
Arrival
| Time | 2026-05-05 18:00 |
|---|---|
| Airport | Frankfurt Main Airport (EDDF) |
| Time | Latitude | Longitude | Altitude | Speed | Heading |
|---|---|---|---|---|---|
| 2026-05-05 16:59 | 53.63195 | 10.00380 | 44 ft | 0 kts | 86° |
| 2026-05-05 17:04 | 53.63195 | 10.00379 | 44 ft | 0 kts | 86° |
| 2026-05-05 17:04 | 53.63194 | 10.00360 | 43 ft | 2 kts | 86° |
| 2026-05-05 17:04 | 53.63193 | 10.00336 | 42 ft | 2 kts | 86° |
| 2026-05-05 17:04 | 53.63192 | 10.00311 | 42 ft | 2 kts | 86° |
| 2026-05-05 17:05 | 53.63192 | 10.00286 | 41 ft | 2 kts | 99° |
| 2026-05-05 17:05 | 53.63198 | 10.00263 | 40 ft | 2 kts | 132° |
| 2026-05-05 17:05 | 53.63209 | 10.00248 | 39 ft | 2 kts | 161° |
| 2026-05-05 17:05 | 53.63217 | 10.00244 | 39 ft | 1 kts | 177° |
| 2026-05-05 17:06 | 53.63224 | 10.00244 | 40 ft | 0 kts | 176° |
| 2026-05-05 17:10 | 53.63208 | 10.00246 | 39 ft | 7 kts | 175° |
| 2026-05-05 17:10 | 53.63108 | 10.00259 | 39 ft | 21 kts | 177° |
| 2026-05-05 17:10 | 53.62996 | 10.00182 | 39 ft | 9 kts | 211° |
| 2026-05-05 17:10 | 53.62928 | 10.00112 | 38 ft | 14 kts | 212° |
| 2026-05-05 17:11 | 53.62851 | 9.99986 | 35 ft | 16 kts | 241° |
| 2026-05-05 17:11 | 53.62814 | 9.99799 | 33 ft | 17 kts | 295° |
| 2026-05-05 17:11 | 53.62828 | 9.99775 | 32 ft | 0 kts | 335° |
| 2026-05-05 17:11 | 53.62829 | 9.99774 | 32 ft | 2 kts | 335° |
| 2026-05-05 17:12 | 53.62922 | 9.99698 | 30 ft | 32 kts | 333° |
| 2026-05-05 17:12 | 53.63335 | 9.99344 | 32 ft | 102 kts | 334° |
| 2026-05-05 17:12 | 53.64153 | 9.98641 | 69 ft | 156 kts | 336° |
| 2026-05-05 17:12 | 53.65113 | 9.97713 | 608 ft | 162 kts | 332° |
| 2026-05-05 17:13 | 53.66059 | 9.96712 | 1169 ft | 166 kts | 333° |
| 2026-05-05 17:13 | 53.67158 | 9.95761 | 1415 ft | 187 kts | 341° |
| 2026-05-05 17:13 | 53.68366 | 9.94957 | 1996 ft | 184 kts | 343° |
| 2026-05-05 17:13 | 53.69556 | 9.94205 | 2389 ft | 195 kts | 347° |
| 2026-05-05 17:14 | 53.70979 | 9.93929 | 2742 ft | 215 kts | 7° |
| 2026-05-05 17:14 | 53.72471 | 9.94407 | 3307 ft | 230 kts | 16° |
| 2026-05-05 17:14 | 53.74033 | 9.95391 | 3744 ft | 251 kts | 30° |
| 2026-05-05 17:14 | 53.75330 | 9.97299 | 4255 ft | 248 kts | 55° |
| 2026-05-05 17:15 | 53.75894 | 10.00067 | 4349 ft | 259 kts | 88° |
| 2026-05-05 17:15 | 53.75425 | 10.03091 | 4509 ft | 282 kts | 117° |
| 2026-05-05 17:15 | 53.74266 | 10.05734 | 5236 ft | 276 kts | 129° |
| 2026-05-05 17:15 | 53.73053 | 10.08010 | 5757 ft | 253 kts | 133° |
| 2026-05-05 17:16 | 53.71910 | 10.10312 | 6102 ft | 259 kts | 123° |
| 2026-05-05 17:16 | 53.70988 | 10.12917 | 6540 ft | 262 kts | 118° |
| 2026-05-05 17:16 | 53.70148 | 10.15603 | 7111 ft | 263 kts | 117° |
| 2026-05-05 17:16 | 53.69313 | 10.18207 | 7717 ft | 239 kts | 124° |
| 2026-05-05 17:17 | 53.68234 | 10.20194 | 8342 ft | 233 kts | 147° |
| 2026-05-05 17:17 | 53.66731 | 10.21382 | 8987 ft | 246 kts | 165° |
| 2026-05-05 17:17 | 53.65061 | 10.22144 | 9615 ft | 258 kts | 168° |
| 2026-05-05 17:17 | 53.63410 | 10.22867 | 10226 ft | 264 kts | 167° |
| 2026-05-05 17:18 | 53.61669 | 10.23657 | 11204 ft | 256 kts | 167° |
| 2026-05-05 17:18 | 53.60007 | 10.24426 | 12099 ft | 250 kts | 167° |
| 2026-05-05 17:18 | 53.58301 | 10.25207 | 12542 ft | 263 kts | 168° |
| 2026-05-05 17:18 | 53.56490 | 10.26029 | 12856 ft | 281 kts | 167° |
| 2026-05-05 17:19 | 53.54548 | 10.26913 | 13101 ft | 299 kts | 167° |
| 2026-05-05 17:19 | 53.52470 | 10.27861 | 13392 ft | 317 kts | 167° |
| 2026-05-05 17:19 | 53.50333 | 10.28838 | 13840 ft | 333 kts | 167° |
| 2026-05-05 17:19 | 53.48041 | 10.29884 | 14425 ft | 347 kts | 167° |
| 2026-05-05 17:20 | 53.45674 | 10.30964 | 14865 ft | 363 kts | 167° |
| 2026-05-05 17:20 | 53.43208 | 10.32086 | 15249 ft | 377 kts | 167° |
| 2026-05-05 17:20 | 53.40649 | 10.33246 | 15570 ft | 392 kts | 167° |
| 2026-05-05 17:20 | 53.38017 | 10.34431 | 15839 ft | 406 kts | 167° |
| 2026-05-05 17:21 | 53.35275 | 10.35564 | 16253 ft | 413 kts | 172° |
| 2026-05-05 17:21 | 53.32462 | 10.35971 | 16852 ft | 414 kts | 181° |
| 2026-05-05 17:21 | 53.29615 | 10.35782 | 17440 ft | 416 kts | 186° |
| 2026-05-05 17:22 | 53.23856 | 10.34950 | 18555 ft | 423 kts | 186° |
| 2026-05-05 17:22 | 53.20935 | 10.34558 | 19129 ft | 426 kts | 186° |
| 2026-05-05 17:22 | 53.17986 | 10.34227 | 19703 ft | 428 kts | 185° |
| 2026-05-05 17:22 | 53.14996 | 10.33949 | 20322 ft | 429 kts | 185° |
| 2026-05-05 17:23 | 53.12041 | 10.33705 | 20852 ft | 432 kts | 184° |
| 2026-05-05 17:23 | 53.09018 | 10.33474 | 21351 ft | 436 kts | 184° |
| 2026-05-05 17:23 | 53.05986 | 10.33253 | 21751 ft | 441 kts | 184° |
| 2026-05-05 17:23 | 53.02937 | 10.33036 | 22066 ft | 448 kts | 184° |
| 2026-05-05 17:24 | 52.99871 | 10.32825 | 22875 ft | 443 kts | 184° |
| 2026-05-05 17:24 | 52.96862 | 10.32622 | 23616 ft | 439 kts | 185° |
| 2026-05-05 17:24 | 52.93828 | 10.32419 | 24389 ft | 436 kts | 185° |
| 2026-05-05 17:24 | 52.90848 | 10.32220 | 25082 ft | 433 kts | 185° |
| 2026-05-05 17:25 | 52.87849 | 10.32019 | 25820 ft | 430 kts | 185° |
| 2026-05-05 17:25 | 52.85946 | 10.31892 | 26306 ft | 428 kts | 185° |
| 2026-05-05 17:25 | 52.82012 | 10.31624 | 26657 ft | 437 kts | 185° |
| 2026-05-05 17:25 | 52.79043 | 10.31418 | 26739 ft | 448 kts | 185° |
| 2026-05-05 17:26 | 52.75973 | 10.31206 | 26828 ft | 457 kts | 185° |
| 2026-05-05 17:26 | 52.72781 | 10.30989 | 27239 ft | 459 kts | 185° |
| 2026-05-05 17:26 | 52.69610 | 10.30779 | 27783 ft | 458 kts | 185° |
| 2026-05-05 17:26 | 52.66432 | 10.30569 | 27849 ft | 458 kts | 185° |
| 2026-05-05 17:27 | 52.63340 | 10.30366 | 27854 ft | 454 kts | 185° |
| 2026-05-05 17:27 | 52.60214 | 10.30161 | 27854 ft | 454 kts | 185° |
| 2026-05-05 17:27 | 52.57106 | 10.29956 | 27854 ft | 455 kts | 185° |
| 2026-05-05 17:27 | 52.54002 | 10.29751 | 27850 ft | 454 kts | 185° |
| 2026-05-05 17:28 | 52.50856 | 10.29543 | 27826 ft | 453 kts | 185° |
| 2026-05-05 17:28 | 52.47759 | 10.29338 | 27537 ft | 454 kts | 185° |
| 2026-05-05 17:28 | 52.44606 | 10.29129 | 27254 ft | 452 kts | 185° |
| 2026-05-05 17:28 | 52.41457 | 10.28922 | 26965 ft | 454 kts | 185° |
| 2026-05-05 17:29 | 52.38318 | 10.28714 | 26694 ft | 454 kts | 185° |
| 2026-05-05 17:29 | 52.35144 | 10.28504 | 26421 ft | 457 kts | 184° |
| 2026-05-05 17:29 | 52.32006 | 10.28296 | 26151 ft | 457 kts | 184° |
| 2026-05-05 17:29 | 52.28852 | 10.28087 | 25842 ft | 458 kts | 184° |
| 2026-05-05 17:30 | 52.25854 | 10.27890 | 25512 ft | 459 kts | 184° |
| 2026-05-05 17:30 | 52.22833 | 10.27692 | 25175 ft | 457 kts | 184° |
| 2026-05-05 17:30 | 52.19909 | 10.27501 | 24855 ft | 456 kts | 184° |
| 2026-05-05 17:30 | 52.17068 | 10.27316 | 24543 ft | 454 kts | 184° |
| 2026-05-05 17:31 | 52.16468 | 10.27277 | 24477 ft | 454 kts | 184° |
| 2026-05-05 17:31 | 52.15055 | 10.27185 | 24317 ft | 454 kts | 184° |
| 2026-05-05 17:31 | 52.12669 | 10.27030 | 24061 ft | 452 kts | 184° |
| 2026-05-05 17:31 | 52.09550 | 10.26827 | 23718 ft | 451 kts | 184° |
| 2026-05-05 17:32 | 52.06456 | 10.26626 | 23383 ft | 449 kts | 184° |
| 2026-05-05 17:32 | 52.03412 | 10.26428 | 23058 ft | 448 kts | 184° |
| 2026-05-05 17:32 | 52.00343 | 10.26229 | 22728 ft | 445 kts | 184° |
| 2026-05-05 17:32 | 51.97301 | 10.26031 | 22403 ft | 445 kts | 184° |
| 2026-05-05 17:33 | 51.94202 | 10.25830 | 22074 ft | 443 kts | 183° |
| 2026-05-05 17:33 | 51.91154 | 10.25633 | 21746 ft | 441 kts | 183° |
| 2026-05-05 17:33 | 51.88073 | 10.25434 | 21449 ft | 441 kts | 183° |
| 2026-05-05 17:33 | 51.85039 | 10.25238 | 21138 ft | 438 kts | 183° |
| 2026-05-05 17:34 | 51.82024 | 10.25044 | 20838 ft | 437 kts | 183° |
| 2026-05-05 17:34 | 51.78986 | 10.24846 | 20532 ft | 436 kts | 184° |
| 2026-05-05 17:34 | 51.76040 | 10.24302 | 20444 ft | 421 kts | 192° |
| 2026-05-05 17:34 | 51.73192 | 10.23099 | 20485 ft | 427 kts | 198° |
| 2026-05-05 17:35 | 51.70397 | 10.21564 | 20501 ft | 428 kts | 200° |
| 2026-05-05 17:35 | 51.67666 | 10.19943 | 20434 ft | 428 kts | 200° |
| 2026-05-05 17:35 | 51.64938 | 10.18310 | 20306 ft | 425 kts | 200° |
| 2026-05-05 17:35 | 51.62205 | 10.16709 | 20176 ft | 426 kts | 199° |
| 2026-05-05 17:36 | 51.59412 | 10.15128 | 20048 ft | 427 kts | 199° |
| 2026-05-05 17:36 | 51.56659 | 10.13617 | 19927 ft | 424 kts | 199° |
| 2026-05-05 17:36 | 51.53841 | 10.12104 | 19818 ft | 424 kts | 198° |
| 2026-05-05 17:36 | 51.51047 | 10.10628 | 19799 ft | 426 kts | 198° |
| 2026-05-05 17:37 | 51.48233 | 10.09154 | 19803 ft | 426 kts | 198° |
| 2026-05-05 17:37 | 51.45438 | 10.07699 | 19799 ft | 425 kts | 198° |
| 2026-05-05 17:37 | 51.42659 | 10.06259 | 19789 ft | 426 kts | 198° |
| 2026-05-05 17:37 | 51.39834 | 10.04800 | 19791 ft | 425 kts | 198° |
| 2026-05-05 17:38 | 51.37017 | 10.03350 | 19791 ft | 426 kts | 198° |
| 2026-05-05 17:38 | 51.34188 | 10.01894 | 19785 ft | 427 kts | 198° |
| 2026-05-05 17:38 | 51.31401 | 10.00461 | 19776 ft | 428 kts | 197° |
| 2026-05-05 17:38 | 51.28562 | 9.99005 | 19779 ft | 425 kts | 197° |
| 2026-05-05 17:39 | 51.25805 | 9.97593 | 19774 ft | 427 kts | 197° |
| 2026-05-05 17:39 | 51.23008 | 9.96162 | 19778 ft | 428 kts | 198° |
| 2026-05-05 17:39 | 51.20171 | 9.94714 | 19662 ft | 428 kts | 198° |
| 2026-05-05 17:39 | 51.17369 | 9.93285 | 19292 ft | 427 kts | 198° |
| 2026-05-05 17:40 | 51.14642 | 9.91894 | 18895 ft | 422 kts | 197° |
| 2026-05-05 17:40 | 51.11900 | 9.90494 | 18497 ft | 423 kts | 198° |
| 2026-05-05 17:40 | 51.09108 | 9.89070 | 18080 ft | 420 kts | 198° |
| 2026-05-05 17:40 | 51.06388 | 9.87688 | 17687 ft | 420 kts | 197° |
| 2026-05-05 17:41 | 51.03665 | 9.86308 | 17301 ft | 416 kts | 197° |
| 2026-05-05 17:41 | 51.00963 | 9.84940 | 16907 ft | 414 kts | 197° |
| 2026-05-05 17:41 | 50.98251 | 9.83568 | 16508 ft | 413 kts | 197° |
| 2026-05-05 17:41 | 50.95536 | 9.82195 | 16113 ft | 409 kts | 197° |
| 2026-05-05 17:42 | 50.92828 | 9.80827 | 15714 ft | 409 kts | 197° |
| 2026-05-05 17:42 | 50.90133 | 9.79468 | 15323 ft | 405 kts | 197° |
| 2026-05-05 17:42 | 50.87464 | 9.78123 | 14936 ft | 404 kts | 197° |
| 2026-05-05 17:42 | 50.84808 | 9.76788 | 14539 ft | 401 kts | 197° |
| 2026-05-05 17:43 | 50.82170 | 9.75465 | 14155 ft | 400 kts | 197° |
| 2026-05-05 17:43 | 50.79542 | 9.74147 | 13766 ft | 395 kts | 197° |
| 2026-05-05 17:43 | 50.76950 | 9.72848 | 13377 ft | 395 kts | 197° |
| 2026-05-05 17:43 | 50.74367 | 9.71555 | 12990 ft | 392 kts | 197° |
| 2026-05-05 17:44 | 50.71845 | 9.69945 | 12593 ft | 391 kts | 208° |
| 2026-05-05 17:44 | 50.69594 | 9.67647 | 12253 ft | 387 kts | 216° |
| 2026-05-05 17:44 | 50.67457 | 9.65050 | 11859 ft | 386 kts | 218° |
| 2026-05-05 17:44 | 50.65379 | 9.62367 | 11591 ft | 383 kts | 219° |
| 2026-05-05 17:45 | 50.63328 | 9.59677 | 11186 ft | 383 kts | 219° |
| 2026-05-05 17:45 | 50.61300 | 9.57028 | 10807 ft | 381 kts | 219° |
| 2026-05-05 17:45 | 50.59301 | 9.54414 | 10411 ft | 369 kts | 219° |
| 2026-05-05 17:45 | 50.57355 | 9.51861 | 10009 ft | 355 kts | 219° |
| 2026-05-05 17:46 | 50.55508 | 9.49427 | 9614 ft | 344 kts | 220° |
| 2026-05-05 17:46 | 50.53688 | 9.47053 | 9217 ft | 334 kts | 220° |
| 2026-05-05 17:46 | 50.51943 | 9.44818 | 8861 ft | 323 kts | 220° |
| 2026-05-05 17:46 | 50.50236 | 9.42666 | 8785 ft | 305 kts | 219° |
| 2026-05-05 17:47 | 50.48622 | 9.40641 | 8779 ft | 287 kts | 220° |
| 2026-05-05 17:47 | 50.47101 | 9.38754 | 8779 ft | 278 kts | 219° |
| 2026-05-05 17:47 | 50.45559 | 9.36860 | 8780 ft | 281 kts | 219° |
| 2026-05-05 17:47 | 50.44040 | 9.34998 | 8782 ft | 278 kts | 219° |
| 2026-05-05 17:48 | 50.42501 | 9.33109 | 8785 ft | 278 kts | 219° |
| 2026-05-05 17:48 | 50.40992 | 9.31261 | 8787 ft | 278 kts | 219° |
| 2026-05-05 17:48 | 50.39468 | 9.29406 | 8732 ft | 278 kts | 218° |
| 2026-05-05 17:48 | 50.37936 | 9.27540 | 8493 ft | 276 kts | 218° |
| 2026-05-05 17:49 | 50.36460 | 9.25730 | 8257 ft | 268 kts | 219° |
| 2026-05-05 17:49 | 50.35012 | 9.23960 | 8012 ft | 257 kts | 219° |
| 2026-05-05 17:49 | 50.33632 | 9.22285 | 7750 ft | 246 kts | 219° |
| 2026-05-05 17:49 | 50.32306 | 9.20686 | 7501 ft | 238 kts | 219° |
| 2026-05-05 17:50 | 50.31002 | 9.19121 | 7255 ft | 236 kts | 219° |
| 2026-05-05 17:50 | 50.29710 | 9.17573 | 7006 ft | 237 kts | 219° |
| 2026-05-05 17:50 | 50.28407 | 9.16013 | 6802 ft | 233 kts | 219° |
| 2026-05-05 17:50 | 50.27111 | 9.14465 | 6789 ft | 235 kts | 219° |
| 2026-05-05 17:51 | 50.25823 | 9.12936 | 6793 ft | 235 kts | 219° |
| 2026-05-05 17:51 | 50.24528 | 9.11399 | 6770 ft | 234 kts | 218° |
| 2026-05-05 17:51 | 50.23299 | 9.09848 | 6472 ft | 220 kts | 222° |
| 2026-05-05 17:51 | 50.22178 | 9.08272 | 6028 ft | 215 kts | 224° |
| 2026-05-05 17:52 | 50.21101 | 9.06735 | 5585 ft | 211 kts | 223° |
| 2026-05-05 17:52 | 50.20029 | 9.05210 | 5234 ft | 202 kts | 225° |
| 2026-05-05 17:52 | 50.18998 | 9.03833 | 4936 ft | 194 kts | 223° |
| 2026-05-05 17:52 | 50.18026 | 9.02468 | 4647 ft | 184 kts | 224° |
| 2026-05-05 17:53 | 50.17096 | 9.01182 | 4329 ft | 171 kts | 224° |
| 2026-05-05 17:53 | 50.16218 | 8.99999 | 4044 ft | 172 kts | 221° |
| 2026-05-05 17:53 | 50.15293 | 8.98743 | 3960 ft | 179 kts | 224° |
| 2026-05-05 17:53 | 50.14343 | 8.97466 | 3958 ft | 182 kts | 221° |
| 2026-05-05 17:54 | 50.13396 | 8.96133 | 4025 ft | 185 kts | 229° |
| 2026-05-05 17:54 | 50.12630 | 8.94529 | 3995 ft | 185 kts | 243° |
| 2026-05-05 17:54 | 50.12108 | 8.92742 | 3930 ft | 180 kts | 249° |
| 2026-05-05 17:54 | 50.11655 | 8.90914 | 3958 ft | 181 kts | 251° |
| 2026-05-05 17:55 | 50.11226 | 8.89108 | 3963 ft | 181 kts | 251° |
| 2026-05-05 17:55 | 50.10795 | 8.87276 | 3964 ft | 181 kts | 251° |
| 2026-05-05 17:55 | 50.10361 | 8.85436 | 3961 ft | 181 kts | 251° |
| 2026-05-05 17:55 | 50.09928 | 8.83598 | 3795 ft | 182 kts | 251° |
| 2026-05-05 17:56 | 50.09496 | 8.81768 | 3544 ft | 181 kts | 250° |
| 2026-05-05 17:56 | 50.09058 | 8.79916 | 3267 ft | 180 kts | 251° |
| 2026-05-05 17:56 | 50.08632 | 8.78116 | 3016 ft | 181 kts | 251° |
| 2026-05-05 17:56 | 50.08196 | 8.76271 | 2770 ft | 181 kts | 251° |
| 2026-05-05 17:57 | 50.07764 | 8.74445 | 2519 ft | 180 kts | 251° |
| 2026-05-05 17:57 | 50.07335 | 8.72637 | 2274 ft | 180 kts | 251° |
| 2026-05-05 17:57 | 50.06903 | 8.70817 | 2030 ft | 179 kts | 251° |
| 2026-05-05 17:57 | 50.06489 | 8.69078 | 1772 ft | 161 kts | 251° |
| 2026-05-05 17:58 | 50.06128 | 8.67560 | 1558 ft | 143 kts | 251° |
| 2026-05-05 17:58 | 50.05788 | 8.66136 | 1402 ft | 139 kts | 251° |
| 2026-05-05 17:58 | 50.05445 | 8.64748 | 1196 ft | 138 kts | 250° |
| 2026-05-05 17:58 | 50.05116 | 8.63350 | 1050 ft | 138 kts | 251° |
| 2026-05-05 17:59 | 50.04787 | 8.61942 | 870 ft | 138 kts | 250° |
| 2026-05-05 17:59 | 50.04472 | 8.60580 | 675 ft | 131 kts | 251° |
| 2026-05-05 17:59 | 50.04156 | 8.59268 | 474 ft | 132 kts | 249° |
| 2026-05-05 17:59 | 50.03845 | 8.57956 | 364 ft | 122 kts | 248° |
| 2026-05-05 18:00 | 50.03620 | 8.57049 | 344 ft | 61 kts | 250° |
| 2026-05-05 18:00 | 50.03476 | 8.56453 | 341 ft | 36 kts | 248° |
| 2026-05-05 18:00 | 50.03426 | 8.56153 | 340 ft | 16 kts | 271° |
| 2026-05-05 18:00 | 50.03446 | 8.55958 | 338 ft | 19 kts | 281° |
| 2026-05-05 18:01 | 50.03451 | 8.55914 | 338 ft | 0 kts | 281° |
| 2026-05-05 18:01 | 50.03451 | 8.55911 | 338 ft | 2 kts | 281° |
| 2026-05-05 18:01 | 50.03457 | 8.55865 | 338 ft | 8 kts | 280° |
| 2026-05-05 18:01 | 50.03475 | 8.55737 | 338 ft | 0 kts | 294° |
| 2026-05-05 18:02 | 50.03492 | 8.55716 | 338 ft | 10 kts | 333° |
| 2026-05-05 18:02 | 50.03555 | 8.55743 | 339 ft | 0 kts | 60° |
| 2026-05-05 18:02 | 50.03608 | 8.55956 | 340 ft | 31 kts | 71° |
| 2026-05-05 18:02 | 50.03702 | 8.56349 | 343 ft | 43 kts | 71° |
| 2026-05-05 18:03 | 50.03805 | 8.56775 | 348 ft | 41 kts | 71° |
| 2026-05-05 18:03 | 50.03893 | 8.57151 | 353 ft | 38 kts | 70° |
| 2026-05-05 18:03 | 50.03940 | 8.57347 | 356 ft | 37 kts | 70° |
| 2026-05-05 18:03 | 50.04030 | 8.57713 | 362 ft | 34 kts | 69° |
| 2026-05-05 18:04 | 50.04106 | 8.58039 | 367 ft | 30 kts | 69° |
| 2026-05-05 18:04 | 50.04241 | 8.58204 | 369 ft | 23 kts | 16° |
| 2026-05-05 18:04 | 50.04290 | 8.58202 | 370 ft | 0 kts | 341° |
| 2026-05-05 18:06 | 50.04304 | 8.58194 | 370 ft | 8 kts | 340° |
| 2026-05-05 18:06 | 50.04389 | 8.58143 | 372 ft | 22 kts | 340° |
| 2026-05-05 18:07 | 50.04569 | 8.58038 | 374 ft | 28 kts | 340° |
| 2026-05-05 18:07 | 50.04644 | 8.57996 | 374 ft | 0 kts | 340° |
| 2026-05-05 18:08 | 50.04657 | 8.57989 | 374 ft | 8 kts | 340° |
| 2026-05-05 18:08 | 50.04770 | 8.57984 | 376 ft | 18 kts | 38° |
| 2026-05-05 18:09 | 50.04799 | 8.58058 | 378 ft | 2 kts | 70° |